Hovedside
METAR-TAF:

METAR-TAF

Lufthavner :

Singapore, Singapore

breddegrad: 01-22N, lengdegrad: 103-55E, høyde over havet: 18 m

Gjeldene værobservasjon

Denne rapporten ble laget for 1 time og 9 minutter siden, klokken 01:00 UTC
Vind 5 kt fra Sør-sørvest
Temperatur 25°C
Luftfuktighet 83%
Trykk 1012 hPa
Sikt: 7000 m
Få skyer i en høyde av 1200 ft
Brutte skyer i en høyde av 15000 ft
regn,

METAR: WSAP 220100Z 21005KT 7000 RA FEW012 BKN150 25/22 Q1012

Tid: 10:09 (02:09 UTC)

Varsel

Denne rapporten ble laget for 3 timer og 9 minutter siden, klokken 23:00 UTC
Varsel gyldig fra 22. klokken 00 UTC til 23. klokken 06 UTC
Vind 12 kt fra Sør
Sikt 10 km eller mer
Få skyer i en høyde av 1500 ft
Spredte skyer i en høyde av 2000 ft

TAF: WSAP 212300Z 2200/2306 17012KT 9999 FEW015 SCT020

Værobservasjoner og værvarsel for over 4000 flyplasser (METAR- og TAF-rapporter).

Tilgjengelige stasjoner er representert av de røde og gule prikkene på kartet.

Hold musepekeren over prikken for å se navnet på stasjonen.

Klikk så for å se værobservasjoner og -varsler.

For å forandre kartet kan du klikke på den grønne knappen med svart kryss for å zoome inn, på den grønne knappen med strek for å zoome ut, eller på de grønne pilene for å se tilstøtende kart.


METAR-TAF: